Terminal Aerodrome Forecast
Issued by NWS Melbourne, FL

Current Version | Previous Version | Text Only | Print | Product List | Glossary On
Versions: 1 2 3 4 5 6 7 8 9 10 11 12 13 14 15 16 17 18 19 20 21 22 23 24 25 26 27 28
000
FTUS42 KMLB 020308 AAA
TAFMCO
TAF AMD
KMCO 020308Z 0203/0224 05004KT P6SM FEW004 FEW060 BKN250
     FM020500 02004KT 3SM BR OVC003
      TEMPO 0209/0213 1SM BR OVC002
     FM021400 02005KT P6SM BKN010
     FM021800 04006KT P6SM SCT035=

USA.gov is the U.S. government's official web portal to all federal, state and local government web resources and services.